createdAt,value
2022-11-29T05:24:53.086Z,65.50
2022-11-29T05:27:38.561Z,65.61
2022-11-29T05:30:20.886Z,65.56
2022-11-29T05:33:08.567Z,65.38
2022-11-29T05:35:54.005Z,65.61
2022-11-29T05:38:49.016Z,65.39
2022-11-29T05:41:46.546Z,65.53
2022-11-29T05:44:39.624Z,65.50
2022-11-29T05:47:10.179Z,65.32
2022-11-29T05:50:09.293Z,65.59
2022-11-29T05:52:57.563Z,65.53
2022-11-29T05:55:59.288Z,65.37
2022-11-29T05:58:52.871Z,65.26
2022-11-29T06:01:34.563Z,65.40
2022-11-29T06:04:21.191Z,65.44
2022-11-29T06:07:16.313Z,65.36
2022-11-29T06:10:02.025Z,65.55
2022-11-29T06:12:31.874Z,65.44
2022-11-29T06:15:36.174Z,65.51
2022-11-29T06:18:40.757Z,65.65
2022-11-29T06:21:29.639Z,65.61
2022-11-29T06:24:25.757Z,65.32
2022-11-29T06:27:34.446Z,65.64
2022-11-29T06:30:10.460Z,65.55
2022-11-29T06:32:50.397Z,65.24
2022-11-29T06:35:35.380Z,65.48
2022-11-29T06:38:18.315Z,65.81
2022-11-29T06:40:45.522Z,65.37
2022-11-29T06:43:12.767Z,65.10
2022-11-29T06:45:46.089Z,65.35
2022-11-29T06:48:22.593Z,65.02
2022-11-29T06:51:15.381Z,65.30
2022-11-29T06:53:50.016Z,65.21
2022-11-29T06:56:26.668Z,65.43
2022-11-29T06:59:41.403Z,65.54
2022-11-29T07:02:29.580Z,65.11
2022-11-29T07:05:05.832Z,65.23
2022-11-29T07:07:34.986Z,65.39
2022-11-29T07:10:11.979Z,65.38
2022-11-29T07:12:41.812Z,65.31
2022-11-29T07:15:18.548Z,65.22
2022-11-29T07:17:54.296Z,64.89
2022-11-29T07:20:35.281Z,64.97
2022-11-29T07:23:43.528Z,65.43
2022-11-29T07:26:26.704Z,65.15
2022-11-29T07:29:29.349Z,65.17
2022-11-29T07:32:15.613Z,65.11
2022-11-29T07:35:15.565Z,65.50
2022-11-29T07:38:06.881Z,65.15
2022-11-29T07:40:46.959Z,65.21
2022-11-29T07:43:50.020Z,65.30
2022-11-29T07:46:16.869Z,65.15
2022-11-29T07:48:43.672Z,65.26
2022-11-29T07:51:11.000Z,64.88
2022-11-29T07:53:43.248Z,65.25
2022-11-29T07:56:12.159Z,65.30
2022-11-29T07:58:39.768Z,65.25
2022-11-29T08:01:06.818Z,64.80
2022-11-29T08:03:35.364Z,64.95
2022-11-29T08:06:02.788Z,64.94
2022-11-29T08:08:29.696Z,65.29
2022-11-29T08:10:56.496Z,65.17
2022-11-29T08:13:23.276Z,65.31
2022-11-29T08:15:50.113Z,64.92
2022-11-29T08:18:17.698Z,64.90
2022-11-29T08:20:46.095Z,64.99
2022-11-29T08:23:14.015Z,65.11
2022-11-29T08:25:41.326Z,65.10
2022-11-29T08:28:08.431Z,64.84
2022-11-29T08:30:35.391Z,64.75
2022-11-29T08:33:02.240Z,64.64
2022-11-29T08:35:29.380Z,64.83
2022-11-29T08:37:56.162Z,64.84
2022-11-29T08:40:24.287Z,64.76
2022-11-29T08:42:51.217Z,64.76
2022-11-29T08:45:18.117Z,64.90
2022-11-29T08:47:44.928Z,64.58
2022-11-29T08:50:15.863Z,64.86
2022-11-29T08:53:08.357Z,64.96
2022-11-29T08:55:42.856Z,64.97
2022-11-29T08:58:13.993Z,64.63
2022-11-29T09:00:43.296Z,65.05
2022-11-29T09:03:28.759Z,64.81
2022-11-29T09:05:55.586Z,64.98
2022-11-29T09:08:22.527Z,64.76
2022-11-29T09:10:49.534Z,64.75
2022-11-29T09:13:18.013Z,64.67
2022-11-29T09:15:44.885Z,64.95
2022-11-29T09:18:11.656Z,64.71
2022-11-29T09:20:38.485Z,64.78
2022-11-29T09:23:05.380Z,64.71
2022-11-29T09:25:32.253Z,64.74
2022-11-29T09:28:03.588Z,64.67
2022-11-29T09:30:31.639Z,64.75
2022-11-29T09:33:00.718Z,64.67
2022-11-29T09:35:27.460Z,64.74
2022-11-29T09:37:54.262Z,64.49
2022-11-29T09:40:28.046Z,64.48
2022-11-29T09:43:20.009Z,64.68
2022-11-29T09:45:53.508Z,64.82
2022-11-29T09:48:59.578Z,65.06
2022-11-29T09:51:55.024Z,65.12
2022-11-29T09:55:01.924Z,65.25
2022-11-29T09:57:30.765Z,65.35
2022-11-29T10:00:05.648Z,65.58
2022-11-29T10:02:45.557Z,65.16
2022-11-29T10:05:19.556Z,65.32
2022-11-29T10:07:57.480Z,65.62
2022-11-29T10:10:40.490Z,65.71
2022-11-29T10:13:19.174Z,65.55
2022-11-29T10:15:50.607Z,65.56
2022-11-29T10:18:38.400Z,65.95
2022-11-29T10:21:14.044Z,65.71
2022-11-29T10:23:55.163Z,65.68
2022-11-29T10:26:23.036Z,65.76
2022-11-29T10:28:49.895Z,65.96
2022-11-29T10:31:37.159Z,65.44
2022-11-29T10:34:18.576Z,65.78
2022-11-29T10:36:49.714Z,65.67
2022-11-29T10:39:39.605Z,65.35
2022-11-29T10:42:34.386Z,65.85
2022-11-29T10:45:01.925Z,65.71
2022-11-29T10:47:28.807Z,65.57
2022-11-29T10:49:56.751Z,65.74
2022-11-29T10:52:24.164Z,65.89
2022-11-29T10:54:56.992Z,65.76
2022-11-29T10:57:24.066Z,65.53
2022-11-29T11:00:06.877Z,66.04
2022-11-29T11:02:34.533Z,65.73
2022-11-29T11:05:02.098Z,65.83
2022-11-29T11:07:35.615Z,65.78
2022-11-29T11:10:20.795Z,65.71
2022-11-29T11:13:06.933Z,65.30
2022-11-29T11:15:34.386Z,65.62
2022-11-29T11:18:06.238Z,65.56
2022-11-29T11:20:37.418Z,65.37
2022-11-29T11:23:11.642Z,65.64
2022-11-29T11:25:39.811Z,65.85
2022-11-29T11:28:38.756Z,65.79
2022-11-29T11:31:08.809Z,65.75
2022-11-29T11:33:46.248Z,66.09
2022-11-29T11:36:27.483Z,65.67
2022-11-29T11:39:12.876Z,65.23
2022-11-29T11:42:01.425Z,65.31
2022-11-29T11:44:48.413Z,65.39
2022-11-29T11:47:27.870Z,65.12
2022-11-29T11:50:01.970Z,65.37
2022-11-29T11:52:52.261Z,65.11
2022-11-29T11:55:43.318Z,65.29
2022-11-29T11:58:12.997Z,65.09
2022-11-29T12:01:07.589Z,65.26
2022-11-29T12:03:58.944Z,65.22
2022-11-29T12:06:51.244Z,64.96
2022-11-29T12:09:41.112Z,64.96
2022-11-29T12:12:26.027Z,65.25
2022-11-29T12:15:04.477Z,64.88
2022-11-29T12:17:56.530Z,65.24
2022-11-29T12:20:41.360Z,64.82
2022-11-29T12:23:14.363Z,64.74
2022-11-29T12:26:03.540Z,64.78
2022-11-29T12:28:35.195Z,64.67
2022-11-29T12:31:33.024Z,64.71
2022-11-29T12:34:43.418Z,65.11
2022-11-29T12:37:43.740Z,65.26
2022-11-29T12:40:44.035Z,64.81
2022-11-29T12:43:53.861Z,65.02
2022-11-29T12:46:26.302Z,64.70
2022-11-29T12:49:43.380Z,64.80
2022-11-29T12:52:35.782Z,64.85
2022-11-29T12:55:27.011Z,64.44
2022-11-29T12:58:15.160Z,64.61
2022-11-29T13:01:31.523Z,64.77
2022-11-29T13:04:21.220Z,64.44
2022-11-29T13:07:12.500Z,64.59
2022-11-29T13:09:54.220Z,64.66
2022-11-29T13:12:49.212Z,64.58
2022-11-29T13:15:31.604Z,65.28
2022-11-29T13:18:50.807Z,64.95
2022-11-29T13:21:40.583Z,64.91
2022-11-29T13:24:16.851Z,64.71
2022-11-29T13:26:44.454Z,64.47
2022-11-29T13:29:17.446Z,64.57
2022-11-29T13:31:46.824Z,64.32
2022-11-29T13:34:22.644Z,64.58
2022-11-29T13:36:57.796Z,64.53
2022-11-29T13:39:52.737Z,64.36
2022-11-29T13:42:24.900Z,65.19
2022-11-29T13:45:21.686Z,64.93
2022-11-29T13:48:00.817Z,64.68
2022-11-29T13:50:45.162Z,65.00
2022-11-29T13:53:19.411Z,64.55
2022-11-29T13:55:48.888Z,64.92
2022-11-29T13:58:17.860Z,65.05
2022-11-29T14:00:44.867Z,64.96
2022-11-29T14:03:23.643Z,64.76
2022-11-29T14:05:54.772Z,64.46
2022-11-29T14:09:10.242Z,64.78
2022-11-29T14:11:34.825Z,64.74
2022-11-29T14:14:05.097Z,64.64
2022-11-29T14:16:43.902Z,64.70
2022-11-29T14:19:10.564Z,64.65
2022-11-29T14:21:59.139Z,64.45
2022-11-29T14:24:37.939Z,64.47
2022-11-29T14:27:07.738Z,64.33
2022-11-29T14:29:53.685Z,64.37
2022-11-29T14:32:46.322Z,64.67
2022-11-29T14:35:21.976Z,64.61
2022-11-29T14:38:14.479Z,64.40
2022-11-29T14:40:41.824Z,64.33
2022-11-29T14:43:36.878Z,64.22
2022-11-29T14:46:15.571Z,64.30
2022-11-29T14:48:54.929Z,64.49
2022-11-29T14:51:23.965Z,64.37
2022-11-29T14:54:14.642Z,64.66
2022-11-29T14:56:44.929Z,64.58
2022-11-29T14:59:41.397Z,64.33
2022-11-29T15:02:29.381Z,64.52
2022-11-29T15:04:58.209Z,64.66
2022-11-29T15:07:31.924Z,64.48
2022-11-29T15:10:04.400Z,64.36
2022-11-29T15:12:36.571Z,64.39
2022-11-29T15:15:33.652Z,64.31
2022-11-29T15:18:06.676Z,64.55
2022-11-29T15:20:57.972Z,64.60
2022-11-29T15:23:24.922Z,64.68
2022-11-29T15:26:00.188Z,64.52
2022-11-29T15:28:29.374Z,64.38
2022-11-29T15:31:06.150Z,64.79
2022-11-29T15:33:40.277Z,64.58
2022-11-29T15:36:19.307Z,64.74
2022-11-29T15:38:54.124Z,64.81
2022-11-29T15:41:30.791Z,64.61
2022-11-29T15:44:05.547Z,64.71
2022-11-29T15:46:35.171Z,64.82
2022-11-29T15:49:25.662Z,64.43
2022-11-29T15:52:00.303Z,64.37
2022-11-29T15:54:38.156Z,64.59
2022-11-29T15:57:20.838Z,64.48
2022-11-29T15:59:59.557Z,64.62
2022-11-29T16:02:36.984Z,64.67
2022-11-29T16:05:22.157Z,64.64
2022-11-29T16:07:54.175Z,64.25
2022-11-29T16:10:34.948Z,64.83
2022-11-29T16:13:25.606Z,64.83
2022-11-29T16:16:09.712Z,64.47
2022-11-29T16:18:40.836Z,64.71
2022-11-29T16:21:23.165Z,64.56
2022-11-29T16:23:50.090Z,64.56
2022-11-29T16:26:27.189Z,64.45
2022-11-29T16:28:57.722Z,64.89
2022-11-29T16:31:38.352Z,64.79
2022-11-29T16:34:18.743Z,64.48
2022-11-29T16:36:45.756Z,64.40
2022-11-29T16:39:23.154Z,64.81
2022-11-29T16:42:30.168Z,64.92
2022-11-29T16:45:37.012Z,64.75
2022-11-29T16:48:25.369Z,64.67
2022-11-29T16:51:10.452Z,64.58
2022-11-29T16:53:41.375Z,64.81
2022-11-29T16:56:14.789Z,64.78
2022-11-29T16:59:20.780Z,64.88
2022-11-29T17:01:31.490Z,64.64
2022-11-29T17:03:59.930Z,64.79
2022-11-29T17:06:28.654Z,64.38
2022-11-29T17:08:57.879Z,64.64
2022-11-29T17:11:25.569Z,64.61
2022-11-29T17:13:52.665Z,64.51
2022-11-29T17:16:23.005Z,64.73
2022-11-29T17:18:52.797Z,64.84
2022-11-29T17:21:37.263Z,64.67
2022-11-29T17:26:50.236Z,64.87
2022-11-29T17:29:29.765Z,64.92
2022-11-29T17:32:09.807Z,64.86
2022-11-29T17:34:39.134Z,65.03
2022-11-29T17:37:06.531Z,64.65
2022-11-29T17:42:18.406Z,64.94
2022-11-29T17:44:45.552Z,65.05
2022-11-29T17:47:41.253Z,65.13
2022-11-29T17:50:21.458Z,65.04
2022-11-29T17:53:03.099Z,64.78
2022-11-29T17:55:30.569Z,65.28
2022-11-29T17:58:19.613Z,64.75
2022-11-29T18:00:49.905Z,64.91
2022-11-29T18:03:26.135Z,64.77
2022-11-29T18:06:17.433Z,64.80
2022-11-29T18:09:06.104Z,64.81
2022-11-29T18:11:49.622Z,64.79
2022-11-29T18:14:32.900Z,65.08
2022-11-29T18:17:00.261Z,65.05
2022-11-29T18:19:33.356Z,65.05
2022-11-29T18:22:23.475Z,64.98
2022-11-29T18:25:16.124Z,64.80
2022-11-29T18:28:00.871Z,64.87
2022-11-29T18:30:33.738Z,64.91
2022-11-29T18:33:03.977Z,64.85
2022-11-29T18:35:35.127Z,65.08
2022-11-29T18:38:17.111Z,64.94
2022-11-29T18:41:00.420Z,64.90
2022-11-29T18:43:32.367Z,65.19
2022-11-29T18:46:15.861Z,65.15
2022-11-29T18:48:48.429Z,65.04
2022-11-29T18:51:30.027Z,65.13
2022-11-29T18:54:00.682Z,65.07
2022-11-29T18:56:31.053Z,65.17
2022-11-29T18:59:54.825Z,65.17
2022-11-29T19:02:25.813Z,65.24
2022-11-29T19:05:13.384Z,65.10
2022-11-29T19:07:53.687Z,65.05
2022-11-29T19:10:25.493Z,65.54
2022-11-29T19:12:52.687Z,65.36
2022-11-29T19:15:21.771Z,65.41
2022-11-29T19:17:48.684Z,65.05
2022-11-29T19:20:15.807Z,65.20
2022-11-29T19:22:42.777Z,65.42
2022-11-29T19:25:16.153Z,65.18
2022-11-29T19:27:45.349Z,65.35
2022-11-29T19:30:15.494Z,65.48
2022-11-29T19:32:45.625Z,65.18
2022-11-29T19:35:15.917Z,65.14
2022-11-29T19:38:22.560Z,65.38
2022-11-29T19:40:55.227Z,65.04
2022-11-29T19:43:25.027Z,65.43
2022-11-29T19:45:55.037Z,65.25
2022-11-29T19:48:30.050Z,65.17
2022-11-29T19:51:00.589Z,65.36
2022-11-29T19:53:35.232Z,65.38
2022-11-29T19:56:08.122Z,65.15
2022-11-29T19:58:35.101Z,65.34
2022-11-29T20:01:13.382Z,65.48
2022-11-29T20:03:41.238Z,65.38
2022-11-29T20:06:16.262Z,65.15
2022-11-29T20:08:46.816Z,65.12
2022-11-29T20:11:17.923Z,65.52
2022-11-29T20:13:47.509Z,65.23
2022-11-29T20:16:18.354Z,65.07
2022-11-29T20:18:51.107Z,65.51
2022-11-29T20:21:28.480Z,65.54
2022-11-29T20:24:07.909Z,65.36
2022-11-29T20:26:39.903Z,65.63
2022-11-29T20:29:08.678Z,65.29
2022-11-29T20:31:38.492Z,65.35
2022-11-29T20:34:06.573Z,65.71
2022-11-29T20:37:22.256Z,65.51
2022-11-29T20:40:00.108Z,65.74
2022-11-29T20:43:07.244Z,65.96
2022-11-29T20:45:34.439Z,65.79
2022-11-29T20:48:15.332Z,65.76
2022-11-29T20:50:47.166Z,65.88
2022-11-29T20:53:43.174Z,65.94
2022-11-29T20:56:11.919Z,65.74
2022-11-29T20:58:39.191Z,65.65
2022-11-29T21:01:07.586Z,65.56
2022-11-29T21:03:35.222Z,65.79
2022-11-29T21:06:05.003Z,65.37
2022-11-29T21:08:32.861Z,65.78
2022-11-29T21:11:09.998Z,65.47
2022-11-29T21:13:39.391Z,65.47
2022-11-29T21:16:08.858Z,65.45
2022-11-29T21:18:39.691Z,65.58
2022-11-29T21:21:36.643Z,65.47
2022-11-29T21:25:08.864Z,65.62
2022-11-29T21:27:52.913Z,65.63
2022-11-29T21:30:33.424Z,65.36
2022-11-29T21:33:24.480Z,65.43
2022-11-29T21:36:11.919Z,65.33
2022-11-29T21:38:54.900Z,65.84
2022-11-29T21:41:28.011Z,65.43
2022-11-29T21:44:06.602Z,65.53
2022-11-29T21:46:38.451Z,65.59
2022-11-29T21:49:10.899Z,65.59
2022-11-29T21:51:38.048Z,65.77
2022-11-29T21:54:06.523Z,65.87
2022-11-29T21:56:41.297Z,65.59
2022-11-29T21:59:26.532Z,65.83
2022-11-29T22:01:54.385Z,65.75
2022-11-29T22:04:30.243Z,65.53
2022-11-29T22:07:04.307Z,65.39
2022-11-29T22:09:41.473Z,65.56
2022-11-29T22:12:32.041Z,65.77
2022-11-29T22:14:58.505Z,65.86
2022-11-29T22:17:41.956Z,65.80
2022-11-29T22:20:09.648Z,65.84
2022-11-29T22:23:38.200Z,65.84
2022-11-29T22:32:48.543Z,65.93
2022-11-29T22:35:23.352Z,65.77
2022-11-29T22:37:50.699Z,65.95
2022-11-29T22:40:20.986Z,65.73
2022-11-29T22:43:02.957Z,65.65
2022-11-29T22:46:12.261Z,65.62
2022-11-29T22:49:03.253Z,65.79
2022-11-29T22:52:02.555Z,65.54
2022-11-29T22:54:34.570Z,65.93
2022-11-29T22:57:01.712Z,66.00
2022-11-29T23:00:14.961Z,65.56
2022-11-29T23:02:44.288Z,65.68
2022-11-29T23:05:20.593Z,66.16
2022-11-29T23:07:49.690Z,65.60
2022-11-29T23:14:03.510Z,65.79
2022-11-29T23:17:06.392Z,66.10
2022-11-29T23:22:55.568Z,65.99
2022-11-29T23:25:22.551Z,66.04
2022-11-29T23:27:50.783Z,65.76
2022-11-29T23:30:17.997Z,66.12
2022-11-29T23:32:45.103Z,65.95
2022-11-29T23:35:12.586Z,66.10
2022-11-29T23:37:40.002Z,66.09
2022-11-29T23:40:14.731Z,66.01
2022-11-29T23:43:43.718Z,66.04
2022-11-29T23:46:32.325Z,65.88
2022-11-29T23:48:59.350Z,65.84
2022-11-29T23:51:26.397Z,66.24
2022-11-29T23:54:00.380Z,65.77
2022-11-29T23:56:36.060Z,66.11
2022-11-29T23:59:03.704Z,65.85
